createdAt,value
2022-12-01T00:01:08.184Z,17.05
2022-12-01T00:03:35.127Z,16.92
2022-12-01T00:06:04.575Z,15.70
2022-12-01T00:08:31.811Z,16.20
2022-12-01T00:11:10.436Z,15.73
2022-12-01T00:13:37.108Z,15.57
2022-12-01T00:16:30.282Z,15.85
2022-12-01T00:18:57.576Z,16.23
2022-12-01T00:21:25.609Z,15.77
2022-12-01T00:23:56.053Z,15.60
2022-12-01T00:26:23.177Z,15.85
2022-12-01T00:28:51.281Z,16.38
2022-12-01T00:31:17.879Z,16.80
2022-12-01T00:33:44.312Z,15.15
2022-12-01T00:36:11.100Z,15.00
2022-12-01T00:38:38.104Z,16.17
2022-12-01T00:41:04.934Z,15.57
2022-12-01T00:43:31.483Z,15.80
2022-12-01T00:45:57.988Z,14.80
2022-12-01T00:48:24.471Z,14.73
2022-12-01T00:50:55.332Z,14.68
2022-12-01T00:53:22.417Z,14.43
2022-12-01T00:55:49.014Z,15.07
2022-12-01T00:58:15.492Z,15.15
2022-12-01T01:00:42.943Z,15.82
2022-12-01T01:03:10.078Z,14.07
2022-12-01T01:05:40.982Z,15.88
2022-12-01T01:08:08.902Z,14.85
2022-12-01T01:10:44.266Z,14.38
2022-12-01T01:13:12.269Z,16.40
2022-12-01T01:15:39.076Z,14.75
2022-12-01T01:18:06.523Z,13.60
2022-12-01T01:20:33.495Z,14.15
2022-12-01T01:22:59.900Z,14.63
2022-12-01T01:25:26.349Z,13.30
2022-12-01T01:27:52.783Z,14.68
2022-12-01T01:30:19.287Z,13.30
2022-12-01T01:32:45.772Z,15.30
2022-12-01T01:35:12.221Z,14.75
2022-12-01T01:37:38.642Z,14.27
2022-12-01T01:40:05.985Z,14.25
2022-12-01T01:42:32.416Z,14.13
2022-12-01T01:44:59.160Z,15.00
2022-12-01T01:47:36.058Z,14.18
2022-12-01T01:50:11.028Z,13.88
2022-12-01T01:52:44.439Z,14.15
2022-12-01T01:55:12.152Z,13.35
2022-12-01T01:57:39.305Z,15.07
2022-12-01T02:00:09.521Z,14.27
2022-12-01T02:02:40.517Z,14.57
2022-12-01T02:07:41.403Z,14.15
2022-12-01T02:10:11.028Z,14.57
2022-12-01T02:13:16.173Z,13.43
2022-12-01T02:16:09.946Z,12.52
2022-12-01T02:19:17.341Z,13.50
2022-12-01T02:22:10.936Z,15.23
2022-12-01T02:24:50.823Z,14.80
2022-12-01T02:27:28.549Z,16.17
2022-12-01T02:30:05.733Z,15.18
2022-12-01T02:32:51.076Z,13.27
2022-12-01T02:35:48.469Z,15.75
2022-12-01T02:38:25.229Z,15.48
2022-12-01T02:41:04.249Z,15.50
2022-12-01T02:43:59.741Z,14.65
2022-12-01T02:46:34.893Z,14.90
2022-12-01T02:49:07.788Z,14.52
2022-12-01T02:51:36.509Z,14.85
2022-12-01T02:54:05.104Z,15.05
2022-12-01T02:56:31.541Z,15.65
2022-12-01T02:58:57.956Z,14.73
2022-12-01T03:01:53.127Z,14.57
2022-12-01T03:04:39.359Z,13.18
2022-12-01T03:07:43.772Z,16.50
2022-12-01T03:10:29.340Z,16.65
2022-12-01T03:13:01.967Z,15.57
2022-12-01T03:15:57.587Z,14.27
2022-12-01T03:18:43.535Z,14.95
2022-12-01T03:21:17.621Z,15.15
2022-12-01T03:23:50.345Z,15.68
2022-12-01T03:26:20.216Z,14.65
2022-12-01T03:28:51.575Z,14.38
2022-12-01T03:31:23.370Z,15.40
2022-12-01T03:33:58.878Z,16.02
2022-12-01T03:36:30.267Z,14.43
2022-12-01T03:39:02.671Z,14.23
2022-12-01T03:41:36.604Z,14.88
2022-12-01T03:44:14.904Z,14.40
2022-12-01T03:46:55.253Z,14.88
2022-12-01T03:49:24.697Z,15.43
2022-12-01T03:52:09.392Z,14.85
2022-12-01T03:54:54.163Z,14.90
2022-12-01T03:57:51.919Z,14.25
2022-12-01T04:00:19.550Z,13.95
2022-12-01T04:02:46.405Z,14.32
2022-12-01T04:05:12.942Z,16.50
2022-12-01T04:07:40.164Z,15.70
2022-12-01T04:10:07.673Z,14.25
2022-12-01T04:12:34.528Z,14.18
2022-12-01T04:15:05.068Z,13.35
2022-12-01T04:17:31.971Z,13.93
2022-12-01T04:19:58.532Z,13.85
2022-12-01T04:22:25.477Z,15.90
2022-12-01T04:24:52.531Z,14.23
2022-12-01T04:27:20.279Z,15.55
2022-12-01T04:29:47.125Z,14.45
2022-12-01T04:32:13.859Z,14.38
2022-12-01T04:34:40.424Z,14.18
2022-12-01T04:37:07.369Z,14.63
2022-12-01T04:39:34.575Z,15.27
2022-12-01T04:42:01.381Z,14.30
2022-12-01T04:44:34.303Z,14.18
2022-12-01T04:47:01.644Z,14.57
2022-12-01T04:49:28.491Z,14.43
2022-12-01T04:51:55.072Z,15.32
2022-12-01T04:54:21.529Z,14.82
2022-12-01T04:56:48.344Z,14.60
2022-12-01T04:59:14.823Z,15.40
2022-12-01T05:01:41.543Z,15.00
2022-12-01T05:04:12.427Z,15.35
2022-12-01T05:06:39.419Z,14.75
2022-12-01T05:09:06.604Z,15.73
2022-12-01T05:11:33.961Z,15.13
2022-12-01T05:14:00.450Z,15.73
2022-12-01T05:16:31.878Z,14.75
2022-12-01T05:19:20.039Z,15.63
2022-12-01T05:21:48.213Z,15.15
2022-12-01T05:24:15.612Z,14.55
2022-12-01T05:26:43.382Z,15.07
2022-12-01T05:29:10.458Z,13.88
2022-12-01T05:31:36.970Z,14.85
2022-12-01T05:34:03.618Z,15.05
2022-12-01T05:36:30.096Z,14.15
2022-12-01T05:38:56.492Z,15.52
2022-12-01T05:41:23.028Z,13.68
2022-12-01T05:43:49.510Z,15.23
2022-12-01T05:46:16.015Z,14.85
2022-12-01T05:48:42.576Z,14.80
2022-12-01T05:51:11.432Z,15.30
2022-12-01T05:53:38.332Z,15.18
2022-12-01T05:56:05.551Z,13.93
2022-12-01T05:58:31.995Z,15.18
2022-12-01T06:00:58.555Z,15.38
2022-12-01T06:03:25.016Z,13.82
2022-12-01T06:05:51.787Z,15.20
2022-12-01T06:08:18.340Z,14.35
2022-12-01T06:10:45.876Z,15.52
2022-12-01T06:13:12.333Z,14.95
2022-12-01T06:15:38.728Z,14.73
2022-12-01T06:18:05.583Z,14.52
2022-12-01T06:20:32.824Z,14.05
2022-12-01T06:22:59.771Z,15.18
2022-12-01T06:25:26.149Z,14.73
2022-12-01T06:27:57.533Z,14.77
2022-12-01T06:30:24.671Z,14.63
2022-12-01T06:32:51.116Z,14.90
2022-12-01T06:35:17.689Z,13.95
2022-12-01T06:37:44.449Z,15.95
2022-12-01T06:40:11.504Z,14.75
2022-12-01T06:42:37.937Z,14.93
2022-12-01T06:45:04.714Z,14.95
2022-12-01T06:47:31.264Z,15.75
2022-12-01T06:49:57.716Z,14.93
2022-12-01T06:52:24.225Z,14.65
2022-12-01T06:54:50.644Z,15.18
2022-12-01T06:57:17.426Z,15.32
2022-12-01T06:59:44.119Z,15.15
2022-12-01T07:02:11.869Z,14.82
2022-12-01T07:04:38.370Z,14.60
2022-12-01T07:07:06.247Z,15.30
2022-12-01T07:09:32.753Z,15.95
2022-12-01T07:11:59.309Z,16.70
2022-12-01T07:14:27.009Z,15.27
2022-12-01T07:16:54.104Z,15.40
2022-12-01T07:19:20.696Z,15.35
2022-12-01T07:21:47.229Z,15.20
2022-12-01T07:24:13.778Z,15.35
2022-12-01T07:26:41.309Z,16.55
2022-12-01T07:29:09.313Z,15.05
2022-12-01T07:31:38.388Z,15.35
2022-12-01T07:34:05.609Z,16.92
2022-12-01T07:36:32.109Z,14.73
2022-12-01T07:38:58.604Z,17.33
2022-12-01T07:41:25.408Z,17.05
2022-12-01T07:43:51.956Z,16.13
2022-12-01T07:46:23.711Z,15.32
2022-12-01T07:48:51.600Z,15.27
2022-12-01T07:51:18.193Z,17.33
2022-12-01T07:53:46.894Z,18.02
2022-12-01T07:56:13.720Z,15.65
2022-12-01T07:58:40.256Z,17.35
2022-12-01T08:01:09.023Z,15.43
2022-12-01T08:03:36.489Z,16.00
2022-12-01T08:06:04.309Z,17.02
2022-12-01T08:08:32.658Z,17.30
2022-12-01T08:11:01.740Z,18.25
2022-12-01T08:13:30.081Z,16.27
2022-12-01T08:15:56.741Z,16.77
2022-12-01T08:18:23.812Z,16.70
2022-12-01T08:20:51.223Z,16.75
2022-12-01T08:23:17.649Z,17.20
2022-12-01T08:25:44.131Z,18.75
2022-12-01T08:28:10.607Z,17.60
2022-12-01T08:30:37.108Z,17.13
2022-12-01T08:33:03.661Z,15.88
2022-12-01T08:35:30.065Z,17.35
2022-12-01T08:37:56.466Z,18.70
2022-12-01T08:40:23.000Z,17.85
2022-12-01T08:42:51.950Z,17.23
2022-12-01T08:45:18.437Z,18.70
2022-12-01T08:47:44.899Z,17.73
2022-12-01T08:50:12.016Z,17.10
2022-12-01T08:52:38.500Z,17.38
2022-12-01T08:55:05.730Z,17.77
2022-12-01T08:57:32.654Z,18.17
2022-12-01T08:59:59.114Z,18.48
2022-12-01T09:02:25.627Z,17.83
2022-12-01T09:04:52.233Z,18.83
2022-12-01T09:07:26.157Z,18.80
2022-12-01T09:09:53.192Z,17.73
2022-12-01T09:12:19.926Z,16.65
2022-12-01T09:14:48.297Z,18.15
2022-12-01T09:17:16.659Z,19.02
2022-12-01T09:19:44.378Z,18.50
2022-12-01T09:22:12.042Z,18.92
2022-12-01T09:24:38.608Z,19.58
2022-12-01T09:27:05.704Z,19.20
2022-12-01T09:29:32.537Z,18.42
2022-12-01T09:32:00.417Z,19.83
2022-12-01T09:34:30.695Z,18.23
2022-12-01T09:36:58.580Z,18.23
2022-12-01T09:39:25.371Z,17.98
2022-12-01T09:41:54.671Z,18.45
2022-12-01T09:44:43.097Z,18.35
2022-12-01T09:47:19.194Z,19.27
2022-12-01T09:50:14.668Z,19.17
2022-12-01T09:52:48.424Z,19.17
2022-12-01T09:55:17.797Z,20.02
2022-12-01T09:57:47.963Z,19.92
2022-12-01T10:00:16.264Z,19.00
2022-12-01T10:02:50.937Z,19.52
2022-12-01T10:05:21.534Z,19.25
2022-12-01T10:07:50.086Z,17.73
2022-12-01T10:10:24.934Z,18.77
2022-12-01T10:12:51.376Z,18.27
2022-12-01T10:15:23.586Z,19.10
2022-12-01T10:18:32.656Z,19.55
2022-12-01T10:21:15.092Z,17.95
2022-12-01T10:24:06.345Z,19.00
2022-12-01T10:26:44.749Z,18.63
2022-12-01T10:29:16.358Z,19.92
2022-12-01T10:31:54.888Z,20.55
2022-12-01T10:34:24.376Z,17.15
2022-12-01T10:36:51.444Z,19.20
2022-12-01T10:39:25.418Z,19.73
2022-12-01T10:41:52.260Z,18.60
2022-12-01T10:44:19.027Z,17.63
2022-12-01T10:46:56.151Z,19.10
2022-12-01T10:49:39.116Z,18.15
2022-12-01T10:52:06.712Z,19.70
2022-12-01T10:54:36.960Z,20.40
2022-12-01T10:57:05.544Z,19.33
2022-12-01T10:59:40.887Z,19.83
2022-12-01T11:02:17.578Z,19.40
2022-12-01T11:04:52.526Z,19.27
2022-12-01T11:07:23.700Z,19.10
2022-12-01T11:10:05.227Z,18.33
2022-12-01T11:12:31.988Z,19.25
2022-12-01T11:14:59.067Z,19.67
2022-12-01T11:17:42.501Z,18.23
2022-12-01T11:22:50.776Z,18.55
2022-12-01T11:25:21.848Z,17.20
2022-12-01T11:27:54.224Z,18.00
2022-12-01T11:30:26.318Z,17.52
2022-12-01T11:33:04.208Z,18.10
2022-12-01T11:35:34.629Z,17.48
2022-12-01T11:38:28.919Z,17.58
2022-12-01T11:40:55.596Z,18.00
2022-12-01T11:43:29.563Z,18.02
2022-12-01T11:45:58.657Z,18.42
2022-12-01T11:48:27.927Z,17.77
2022-12-01T11:51:00.084Z,18.20
2022-12-01T11:53:32.785Z,18.35
2022-12-01T11:56:25.036Z,17.23
2022-12-01T11:59:00.396Z,18.60
2022-12-01T12:01:40.913Z,17.95
2022-12-01T12:04:22.593Z,18.00
2022-12-01T12:07:30.650Z,18.52
2022-12-01T12:10:18.468Z,17.83
2022-12-01T12:13:20.829Z,18.17
2022-12-01T12:16:03.955Z,18.02
2022-12-01T12:18:36.430Z,16.90
2022-12-01T12:21:21.025Z,17.88
2022-12-01T12:24:45.171Z,16.83
2022-12-01T12:27:30.238Z,17.90
2022-12-01T12:30:18.454Z,17.70
2022-12-01T12:32:47.884Z,17.75
2022-12-01T12:35:25.906Z,19.25
2022-12-01T12:38:24.351Z,16.58
2022-12-01T12:41:29.648Z,15.15
2022-12-01T12:44:14.727Z,16.08
2022-12-01T12:46:59.840Z,16.33
2022-12-01T12:49:44.381Z,15.07
2022-12-01T12:52:19.310Z,17.42
2022-12-01T12:55:03.006Z,11.68
2022-12-01T12:57:34.731Z,15.70
2022-12-01T13:00:13.880Z,14.93
2022-12-01T13:02:53.481Z,15.80
2022-12-01T13:05:31.451Z,15.70
2022-12-01T13:08:32.050Z,15.00
2022-12-01T13:11:16.219Z,15.73
2022-12-01T13:14:01.019Z,15.10
2022-12-01T13:16:34.996Z,15.27
2022-12-01T13:19:28.433Z,13.52
2022-12-01T13:21:55.757Z,16.35
2022-12-01T13:24:25.321Z,16.17
2022-12-01T13:26:57.667Z,16.23
2022-12-01T13:29:26.310Z,15.95
2022-12-01T13:31:54.490Z,17.25
2022-12-01T13:34:44.368Z,16.63
2022-12-01T13:37:11.124Z,15.90
2022-12-01T13:39:40.179Z,14.45
2022-12-01T13:42:06.750Z,16.58
2022-12-01T13:44:41.362Z,16.20
2022-12-01T13:47:10.643Z,15.50
2022-12-01T13:49:40.794Z,15.15
2022-12-01T13:52:22.494Z,15.30
2022-12-01T13:55:01.198Z,15.65
2022-12-01T13:57:30.895Z,14.23
2022-12-01T14:00:00.457Z,14.48
2022-12-01T14:02:31.144Z,15.00
2022-12-01T14:05:43.365Z,14.63
2022-12-01T14:08:29.636Z,14.18
2022-12-01T14:11:16.546Z,8.95
2022-12-01T14:14:00.697Z,14.40
2022-12-01T14:16:47.638Z,9.63
2022-12-01T14:19:34.701Z,15.68
2022-12-01T14:22:02.124Z,12.35
2022-12-01T14:24:36.397Z,15.05
2022-12-01T14:27:05.464Z,15.73
2022-12-01T14:29:42.393Z,14.50
2022-12-01T14:32:09.037Z,15.98
2022-12-01T14:34:39.395Z,12.25
2022-12-01T14:37:13.433Z,13.85
2022-12-01T14:40:03.807Z,12.95
2022-12-01T14:43:05.531Z,14.50
2022-12-01T14:45:49.241Z,14.45
2022-12-01T14:48:21.923Z,14.23
2022-12-01T14:50:55.223Z,13.80
2022-12-01T14:53:29.227Z,14.13
2022-12-01T14:55:59.188Z,13.77
2022-12-01T14:58:30.977Z,14.02
2022-12-01T15:01:07.537Z,13.32
2022-12-01T15:03:57.736Z,13.57
2022-12-01T15:06:26.357Z,13.35
2022-12-01T15:09:33.432Z,13.52
2022-12-01T15:12:03.899Z,14.45
2022-12-01T15:14:36.477Z,13.02
2022-12-01T15:17:05.644Z,13.82
2022-12-01T15:19:34.357Z,12.20
2022-12-01T15:22:05.969Z,14.13
2022-12-01T15:24:33.993Z,14.20
2022-12-01T15:27:03.997Z,14.48
2022-12-01T15:29:37.143Z,13.77
2022-12-01T15:32:12.257Z,13.93
2022-12-01T15:34:42.445Z,16.88
2022-12-01T15:37:18.230Z,20.83
2022-12-01T15:39:52.762Z,16.05
2022-12-01T15:42:33.928Z,15.02
2022-12-01T15:45:18.040Z,16.73
2022-12-01T15:47:47.919Z,14.30
2022-12-01T15:50:33.585Z,14.80
2022-12-01T15:53:03.790Z,13.35
2022-12-01T15:55:33.289Z,14.02
2022-12-01T15:58:00.284Z,13.93
2022-12-01T16:00:26.969Z,14.65
2022-12-01T16:02:56.772Z,13.70
2022-12-01T16:05:32.685Z,13.00
2022-12-01T16:08:14.289Z,14.48
2022-12-01T16:10:40.869Z,14.63
2022-12-01T16:13:41.451Z,14.25
2022-12-01T16:16:39.072Z,12.80
2022-12-01T16:19:11.586Z,14.35
2022-12-01T16:21:51.289Z,15.23
2022-12-01T16:24:36.901Z,12.85
2022-12-01T16:27:06.585Z,13.55
2022-12-01T16:29:53.117Z,13.20
2022-12-01T16:32:40.476Z,13.50
2022-12-01T16:35:30.357Z,12.95
2022-12-01T16:37:58.134Z,12.65
2022-12-01T16:40:25.196Z,13.13
2022-12-01T16:42:51.681Z,13.20
2022-12-01T16:45:19.284Z,14.68
2022-12-01T16:47:47.887Z,15.20
2022-12-01T16:50:15.943Z,14.35
2022-12-01T16:52:44.543Z,14.48
2022-12-01T16:55:41.168Z,14.50
2022-12-01T16:58:10.356Z,13.57
2022-12-01T17:00:36.809Z,12.88
2022-12-01T17:03:04.437Z,13.95
2022-12-01T17:05:31.147Z,13.88
2022-12-01T17:07:58.068Z,15.00
2022-12-01T17:10:24.575Z,16.65
2022-12-01T17:12:51.690Z,18.27
2022-12-01T17:15:18.277Z,20.10
2022-12-01T17:17:44.816Z,20.35
2022-12-01T17:20:11.846Z,17.13
2022-12-01T17:22:38.494Z,17.92
2022-12-01T17:25:05.651Z,17.92
2022-12-01T17:27:32.782Z,17.35
2022-12-01T17:30:00.214Z,17.63
2022-12-01T17:32:29.576Z,18.02
2022-12-01T17:34:56.050Z,18.45
2022-12-01T17:37:22.725Z,18.23
2022-12-01T17:39:50.300Z,16.30
2022-12-01T17:42:17.224Z,14.05
2022-12-01T17:44:43.687Z,15.38
2022-12-01T17:47:10.190Z,14.82
2022-12-01T17:49:36.828Z,15.88
2022-12-01T17:52:09.362Z,15.15
2022-12-01T17:54:35.779Z,18.40
2022-12-01T17:57:02.346Z,15.32
2022-12-01T17:59:28.789Z,16.63
2022-12-01T18:01:55.500Z,17.00
2022-12-01T18:04:22.146Z,14.80
2022-12-01T18:06:53.732Z,14.52
2022-12-01T18:09:21.004Z,15.00
2022-12-01T18:11:47.530Z,19.98
2022-12-01T18:14:17.618Z,20.88
2022-12-01T18:16:45.318Z,18.42
2022-12-01T18:19:12.513Z,17.58
2022-12-01T18:21:39.854Z,17.70
2022-12-01T18:24:08.959Z,15.20
2022-12-01T18:26:37.352Z,14.15
2022-12-01T18:29:16.180Z,16.63
2022-12-01T18:31:43.185Z,19.85
2022-12-01T18:34:11.141Z,17.40
2022-12-01T18:36:41.233Z,16.63
2022-12-01T18:39:09.222Z,16.05
2022-12-01T18:41:36.454Z,16.67
2022-12-01T18:44:03.724Z,15.55
2022-12-01T18:46:30.600Z,17.60
2022-12-01T18:49:01.864Z,20.33
2022-12-01T18:51:33.757Z,22.98
2022-12-01T18:54:02.271Z,26.45
2022-12-01T18:56:29.417Z,26.58
2022-12-01T18:59:05.249Z,22.40
2022-12-01T19:01:36.131Z,19.38
2022-12-01T19:04:04.338Z,19.20
2022-12-01T19:06:32.327Z,19.08
2022-12-01T19:09:00.508Z,18.77
2022-12-01T19:11:27.695Z,17.33
2022-12-01T19:13:55.970Z,19.25
2022-12-01T19:16:22.964Z,18.40
2022-12-01T19:18:49.726Z,17.13
2022-12-01T19:21:18.580Z,18.75
2022-12-01T19:23:49.118Z,17.85
2022-12-01T19:26:18.420Z,18.83
2022-12-01T19:28:45.681Z,18.88
2022-12-01T19:31:18.954Z,19.38
2022-12-01T19:33:46.343Z,19.33
2022-12-01T19:36:16.114Z,16.60
2022-12-01T19:38:44.435Z,17.40
2022-12-01T19:41:12.657Z,16.88
2022-12-01T19:43:39.315Z,16.70
2022-12-01T19:46:07.984Z,18.23
2022-12-01T19:48:35.111Z,18.13
2022-12-01T19:51:02.043Z,17.15
2022-12-01T19:53:33.369Z,15.95
2022-12-01T19:56:05.101Z,16.25
2022-12-01T19:58:35.926Z,17.17
2022-12-01T20:01:07.802Z,14.65
2022-12-01T20:03:34.441Z,15.55
2022-12-01T20:06:05.236Z,17.45
2022-12-01T20:08:36.062Z,16.90
2022-12-01T20:11:04.319Z,19.23
2022-12-01T20:13:36.941Z,19.17
2022-12-01T20:16:12.670Z,17.33
2022-12-01T20:18:40.058Z,17.58
2022-12-01T20:21:18.938Z,16.98
2022-12-01T20:23:47.854Z,16.60
2022-12-01T20:26:16.053Z,16.20
2022-12-01T20:28:44.167Z,16.90
2022-12-01T20:31:17.648Z,16.55
2022-12-01T20:33:44.396Z,17.27
2022-12-01T20:36:10.941Z,18.50
2022-12-01T20:38:39.698Z,18.67
2022-12-01T20:41:07.307Z,17.65
2022-12-01T20:43:35.071Z,17.40
2022-12-01T20:46:02.675Z,17.92
2022-12-01T20:48:29.433Z,16.63
2022-12-01T20:50:55.985Z,17.40
2022-12-01T20:53:24.439Z,17.35
2022-12-01T20:55:52.401Z,16.73
2022-12-01T20:58:18.919Z,16.58
2022-12-01T21:00:47.936Z,17.15
2022-12-01T21:03:14.721Z,17.60
2022-12-01T21:05:45.968Z,17.15
2022-12-01T21:08:13.873Z,17.15
2022-12-01T21:10:44.679Z,17.38
2022-12-01T21:13:37.425Z,17.50
2022-12-01T21:16:12.378Z,16.85
2022-12-01T21:18:51.884Z,16.83
2022-12-01T21:21:27.603Z,16.38
2022-12-01T21:24:14.495Z,16.88
2022-12-01T21:26:45.830Z,18.48
2022-12-01T21:29:21.802Z,16.92
2022-12-01T21:31:51.740Z,16.63
2022-12-01T21:34:20.916Z,17.17
2022-12-01T21:36:52.509Z,16.02
2022-12-01T21:39:24.279Z,16.50
2022-12-01T21:41:55.920Z,16.92
2022-12-01T21:44:29.407Z,17.05
2022-12-01T21:46:57.863Z,17.02
2022-12-01T21:49:39.269Z,16.50
2022-12-01T21:52:19.517Z,17.27
2022-12-01T21:54:46.817Z,17.20
2022-12-01T21:57:36.164Z,15.90
2022-12-01T22:00:30.363Z,16.85
2022-12-01T22:03:09.042Z,16.70
2022-12-01T22:05:41.828Z,16.38
2022-12-01T22:08:22.280Z,18.08
2022-12-01T22:10:54.936Z,16.63
2022-12-01T22:13:24.995Z,16.63
2022-12-01T22:15:54.169Z,17.52
2022-12-01T22:18:32.285Z,17.85
2022-12-01T22:21:01.099Z,15.93
2022-12-01T22:23:35.877Z,15.30
2022-12-01T22:26:11.880Z,17.45
2022-12-01T22:28:38.385Z,15.70
2022-12-01T22:31:14.835Z,17.00
2022-12-01T22:33:41.288Z,16.63
2022-12-01T22:36:25.324Z,17.02
2022-12-01T22:38:52.011Z,18.48
2022-12-01T22:41:20.499Z,16.90
2022-12-01T22:43:57.291Z,16.92
2022-12-01T22:46:35.126Z,17.67
2022-12-01T22:49:10.695Z,15.77
2022-12-01T22:52:01.925Z,17.67
2022-12-01T22:54:39.671Z,16.55
2022-12-01T22:57:25.059Z,18.52
2022-12-01T22:59:52.252Z,17.13
2022-12-01T23:02:34.992Z,18.17
2022-12-01T23:05:23.989Z,18.98
2022-12-01T23:07:52.047Z,17.88
2022-12-01T23:10:33.623Z,18.50
2022-12-01T23:13:09.202Z,18.63
2022-12-01T23:15:38.888Z,17.98
2022-12-01T23:18:19.019Z,19.25
2022-12-01T23:20:54.016Z,18.77
2022-12-01T23:23:26.361Z,18.65
2022-12-01T23:25:53.057Z,19.30
2022-12-01T23:28:20.295Z,20.10
2022-12-01T23:30:49.792Z,19.52
2022-12-01T23:33:21.079Z,19.33
2022-12-01T23:35:50.800Z,19.75
2022-12-01T23:38:23.700Z,20.10
2022-12-01T23:40:52.542Z,20.10
2022-12-01T23:43:24.690Z,19.52
2022-12-01T23:46:16.186Z,19.88
2022-12-01T23:48:46.980Z,21.65
2022-12-01T23:51:19.818Z,20.73
2022-12-01T23:53:46.746Z,21.33
2022-12-01T23:56:20.233Z,20.67
2022-12-01T23:58:47.226Z,20.65
